Terminal Aerodrome Forecast
Issued by NWS

Home | Current Version | Previous Version | Text Only | Print | Product List | Glossary On
Versions: 1 2 3 4 5 6 7 8 9 10 11 12 13 14 15 16 17 18 19 20 21 22 23 24 25 26 27 28 29 30 31 32 33 34 35 36 37 38 39 40
000
FTUS43 KGRB 041226 AAA
TAFRHI
TAF AMD
KRHI 041226Z 0412/0512 VRB03KT 4SM BR SCT002
      TEMPO 0412/0413 1SM BR BKN002
     FM041300 VRB03KT 6SM BR SCT005 SCT040
      TEMPO 0413/0414 2SM BR BKN005
     FM041500 06005KT P6SM SCT004 BKN009
     FM041700 13005KT P6SM SCT015 SCT200
     FM050400 VRB02KT 3SM BR SCT006
      TEMPO 0508/0512 1SM BR BKN006=

USA.gov is the U.S. government's official web portal to all federal, state and local government web resources and services.